Zim Ontario — 9HA3594 — position and weather

sailwx.info

Track history (hours):
 
Tides and Currents Weather Stations Pressure Air Temp Water Temp Dewpoint Dewpoint Depression Visibility Wind Speed Wind Dir Waves Ship Positions

Zim Ontario

Last reported at 2017-Nov-11 20:48 UTC. Time now 2017-Nov-18 17:54 UTC.
Position N 30°35' E 122°08'.

Length 274 m; draft 11.2 m.

Type: Ship. MMSI: 229772000.

Date/timePositionNaut miles runAvg speedWind from/ knotsBaromVisibWave heightAir tempDewpointWater temp
2017-Nov-11 20:48N 30°35' E 122°08'  
2017-Nov-07 15:32N 24°18' E 118°43'314.5
2017-Nov-07 15:20N 24°17' E 118°40'514.7
2017-Nov-07 14:59N 24°16' E 118°35'715.6
2017-Nov-07 14:30N 24°14' E 118°27'714.1
2017-Nov-07 14:00N 24°13' E 118°19'612.0
2017-Nov-07 13:31N 24°16' E 118°14'713.8
2017-Nov-07 13:00N 24°21' E 118°09'5 9.4
2017-Nov-07 12:30N 24°25' E 118°05'5 9.5
2017-Nov-07 12:00N 24°27' E 118°00'0 0.1
2017-Nov-07 11:14N 24°27' E 118°00'0 0.0
2017-Nov-07 10:53N 24°27' E 118°00'0 0.0
2017-Nov-07 10:29N 24°27' E 118°00'0 0.0
2017-Nov-07 09:59N 24°27' E 118°00'0 0.0
2017-Nov-07 09:11N 24°27' E 118°00'0 0.0
2017-Nov-07 08:49N 24°27' E 118°00'0 0.0
2017-Nov-07 08:28N 24°27' E 118°00'0 0.0
2017-Nov-07 07:58N 24°27' E 118°00'0 0.0
2017-Nov-07 07:28N 24°27' E 118°00'0 0.0
2017-Nov-07 06:58N 24°27' E 118°00'0 0.0
2017-Nov-07 06:30N 24°27' E 118°00'0 0.0
2017-Nov-07 06:00N 24°27' E 118°00'0 0.0
2017-Nov-07 05:27N 24°27' E 118°00'0 0.0
2017-Nov-07 05:00N 24°27' E 118°00'1 2.9
2017-Nov-07 04:30N 24°26' E 118°02'510.5
2017-Nov-07 04:00N 24°24' E 118°07'3 6.1
2017-Nov-07 03:30N 24°21' E 118°09'4 8.0
2017-Nov-07 03:00N 24°19' E 118°12'4 9.0
2017-Nov-07 02:30N 24°15' E 118°15'4 8.1
2017-Nov-07 02:00N 24°12' E 118°19'5 9.4
2017-Nov-07 01:29N 24°08' E 118°21'611.4
2017-Nov-07 01:00N 24°02' E 118°20'22510.0
2017-Nov-06 02:30N 22°16' E 114°44'510.6
2017-Nov-06 02:00N 22°18' E 114°39'510.6
2017-Nov-06 01:30N 22°20' E 114°33'510.3
2017-Nov-06 01:00N 22°24' E 114°30'5 9.2
2017-Nov-06 00:30N 22°28' E 114°27'5 9.0
2017-Nov-06 00:00N 22°32' E 114°24'714.1
2017-Nov-05 23:30N 22°34' E 114°17'1 2.5
2017-Nov-05 23:00N 22°34' E 114°15'0 0.0
2017-Nov-05 22:31N 22°34' E 114°15'0 0.0
2017-Nov-05 21:54N 22°34' E 114°15'0 0.0
2017-Nov-05 21:30N 22°34' E 114°15'0 0.0
2017-Nov-05 21:00N 22°34' E 114°15'0 0.0
2017-Nov-05 20:30N 22°34' E 114°15'0 0.0
2017-Nov-05 19:41N 22°34' E 114°15'0 0.0
2017-Nov-05 19:29N 22°34' E 114°15'0 0.0
2017-Nov-05 18:47N 22°34' E 114°15'0 0.0
2017-Nov-05 18:23N 22°34' E 114°15'0 0.0
2017-Nov-05 17:59N 22°34' E 114°15'0 0.0
2017-Nov-05 16:22N 22°34' E 114°15'0 0.0
2017-Nov-05 15:58N 22°34' E 114°15'0 0.0
2017-Nov-05 15:28N 22°34' E 114°15'0 0.0
2017-Nov-05 14:57N 22°34' E 114°15'0 0.0
2017-Nov-05 13:39N 22°34' E 114°15'0 0.0
2017-Nov-05 13:15N 22°34' E 114°15'0 0.0
2017-Nov-05 12:50N 22°34' E 114°15'0 0.0
2017-Nov-05 12:26N 22°34' E 114°15'0 0.0
2017-Nov-05 11:56N 22°34' E 114°15'0 0.0
2017-Nov-05 11:26N 22°34' E 114°15'0 0.0
2017-Nov-05 10:43N 22°34' E 114°15'0 0.0
2017-Nov-05 10:25N 22°34' E 114°15'0 0.1
2017-Nov-05 09:58N 22°34' E 114°15'2 3.3
2017-Nov-05 09:31N 22°34' E 114°17'510.0
2017-Nov-05 09:00N 22°33' E 114°22'612.3
2017-Nov-05 08:30N 22°29' E 114°27'3 6.3
2017-Nov-05 08:00N 22°26' E 114°28'3 5.9
2017-Nov-05 07:30N 22°23' E 114°28'917.4
2017-Nov-05 07:00N 22°14' E 114°26'817.0
2017-Nov-05 06:30N 22°08' E 114°20'911.2
2017-Nov-05 05:43N 22°11' E 114°11'411.9
2017-Nov-05 05:24N 22°14' E 114°09'1010.0
2017-Nov-05 04:25N 22°21' E 114°01'513.0
2017-Nov-05 04:01N 22°21' E 113°55'4 7.9
2017-Nov-05 03:30N 22°25' E 113°53'4 7.4
2017-Nov-05 03:00N 22°28' E 113°52'4 7.4
2017-Nov-05 02:28N 22°32' E 113°51'0 0.4
2017-Nov-05 01:58N 22°32' E 113°51'0 0.0
2017-Nov-05 01:28N 22°32' E 113°51'0 0.0
2017-Nov-05 01:00N 22°32' E 113°51'0 0.1
2017-Nov-05 00:30N 22°32' E 113°51'0 0.1
2017-Nov-05 00:00N 22°32' E 113°51'0 0.0
2017-Nov-04 23:30N 22°32' E 113°51'0 0.0
2017-Nov-04 23:00N 22°32' E 113°51'0 0.0
2017-Nov-04 22:26N 22°32' E 113°51'0 0.0
2017-Nov-04 21:56N 22°32' E 113°51'0 0.0
2017-Nov-04 21:29N 22°32' E 113°51'0 0.0
2017-Nov-04 20:59N 22°32' E 113°51'0 0.0
2017-Nov-04 20:28N 22°32' E 113°51'0 0.0
2017-Nov-04 19:58N 22°32' E 113°51'0 0.0
2017-Nov-04 19:28N 22°32' E 113°51'0 0.0
2017-Nov-04 18:58N 22°32' E 113°51'0 0.0
2017-Nov-04 18:28N 22°32' E 113°51'0 0.0
2017-Nov-04 18:00N 22°32' E 113°51'0 0.0
2017-Nov-04 17:30N 22°32' E 113°51'0 0.0
2017-Nov-04 17:00N 22°32' E 113°51'0 0.0
2017-Nov-04 16:30N 22°32' E 113°51'0 0.0
2017-Nov-04 16:00N 22°32' E 113°51'0 0.0
2017-Nov-04 15:29N 22°32' E 113°51'0 0.0
2017-Nov-04 14:59N 22°32' E 113°51'0 0.0
2017-Nov-04 14:29N 22°32' E 113°51'0 0.0
2017-Nov-04 13:59N 22°32' E 113°51'0 0.0
2017-Nov-04 13:28N 22°32' E 113°51'0 0.0
2017-Nov-04 12:58N 22°32' E 113°51'0 0.1
2017-Nov-04 12:22N 22°32' E 113°51'0 0.1
2017-Nov-04 11:58N 22°32' E 113°51'0 0.0
2017-Nov-04 11:28N 22°32' E 113°51'0 0.0
2017-Nov-04 11:00N 22°32' E 113°51'0 0.0
2017-Nov-04 10:27N 22°32' E 113°51'0 0.0
2017-Nov-04 10:00N 22°32' E 113°51'0 0.0
2017-Nov-04 09:30N 22°32' E 113°51'0 0.1
2017-Nov-04 08:59N 22°32' E 113°51'0 0.1
2017-Nov-04 08:26N 22°32' E 113°51'0 0.1
2017-Nov-04 07:59N 22°32' E 113°51'0 0.1
2017-Nov-04 07:30N 22°32' E 113°51'0 0.1
2017-Nov-04 06:58N 22°32' E 113°51'0 0.0
2017-Nov-04 06:28N 22°32' E 113°51'0 0.1
2017-Nov-04 05:58N 22°32' E 113°51'0 0.0
2017-Nov-04 05:30N 22°32' E 113°51'0 0.0
2017-Nov-04 05:00N 22°32' E 113°51'0 0.0
2017-Nov-04 04:30N 22°32' E 113°51'2 4.3
2017-Nov-04 04:00N 22°30' E 113°51'611.6
2017-Nov-04 03:30N 22°24' E 113°53'4 7.9
2017-Nov-04 03:00N 22°21' E 113°56'12 9.7
2017-Nov-04 01:45N 22°15' E 114°07'5 8.4
2017-Nov-04 01:10N 22°12' E 114°11'1 7.9
2017-Nov-04 01:00N 22°11' E 114°12'6 8.8
2017-Nov-04 00:21N 22°08' E 114°17'310.0
2017-Nov-04 00:00N 22°08' E 114°21'3 5.8
2017-Nov-03 23:30N 22°08' E 114°24'3 6.9
2017-Nov-03 23:00N 22°05' E 114°25'4 8.1
2017-Nov-03 22:30N 22°01' E 114°24'713.0
2017-Nov-03 21:59N 21°54' E 114°22'  
Track history (hours):
 
Tides and Currents Weather Stations Pressure Air Temp Water Temp Dewpoint Dewpoint Depression Visibility Wind Speed Wind Dir Waves Ship Positions

Zim Ontario

Last reported at 2017-Nov-11 20:48 UTC. Time now 2017-Nov-18 17:54 UTC.
Position N 30°35' E 122°08'.

Length 274 m; draft 11.2 m.

Type: Ship. MMSI: 229772000.

Date/timePositionNaut miles runAvg speedWind from/ knotsBaromVisibWave heightAir tempDewpointWater temp
2017-Nov-11 20:48N 30°35' E 122°08'  
2017-Nov-07 15:32N 24°18' E 118°43'314.5
2017-Nov-07 15:20N 24°17' E 118°40'514.7
2017-Nov-07 14:59N 24°16' E 118°35'715.6
2017-Nov-07 14:30N 24°14' E 118°27'714.1
2017-Nov-07 14:00N 24°13' E 118°19'612.0
2017-Nov-07 13:31N 24°16' E 118°14'713.8
2017-Nov-07 13:00N 24°21' E 118°09'5 9.4
2017-Nov-07 12:30N 24°25' E 118°05'5 9.5
2017-Nov-07 12:00N 24°27' E 118°00'0 0.1
2017-Nov-07 11:14N 24°27' E 118°00'0 0.0
2017-Nov-07 10:53N 24°27' E 118°00'0 0.0
2017-Nov-07 10:29N 24°27' E 118°00'0 0.0
2017-Nov-07 09:59N 24°27' E 118°00'0 0.0
2017-Nov-07 09:11N 24°27' E 118°00'0 0.0
2017-Nov-07 08:49N 24°27' E 118°00'0 0.0
2017-Nov-07 08:28N 24°27' E 118°00'0 0.0
2017-Nov-07 07:58N 24°27' E 118°00'0 0.0
2017-Nov-07 07:28N 24°27' E 118°00'0 0.0
2017-Nov-07 06:58N 24°27' E 118°00'0 0.0
2017-Nov-07 06:30N 24°27' E 118°00'0 0.0
2017-Nov-07 06:00N 24°27' E 118°00'0 0.0
2017-Nov-07 05:27N 24°27' E 118°00'0 0.0
2017-Nov-07 05:00N 24°27' E 118°00'1 2.9
2017-Nov-07 04:30N 24°26' E 118°02'510.5
2017-Nov-07 04:00N 24°24' E 118°07'3 6.1
2017-Nov-07 03:30N 24°21' E 118°09'4 8.0
2017-Nov-07 03:00N 24°19' E 118°12'4 9.0
2017-Nov-07 02:30N 24°15' E 118°15'4 8.1
2017-Nov-07 02:00N 24°12' E 118°19'5 9.4
2017-Nov-07 01:29N 24°08' E 118°21'611.4
2017-Nov-07 01:00N 24°02' E 118°20'22510.0
2017-Nov-06 02:30N 22°16' E 114°44'510.6
2017-Nov-06 02:00N 22°18' E 114°39'510.6
2017-Nov-06 01:30N 22°20' E 114°33'510.3
2017-Nov-06 01:00N 22°24' E 114°30'5 9.2
2017-Nov-06 00:30N 22°28' E 114°27'5 9.0
2017-Nov-06 00:00N 22°32' E 114°24'714.1
2017-Nov-05 23:30N 22°34' E 114°17'1 2.5
2017-Nov-05 23:00N 22°34' E 114°15'0 0.0
2017-Nov-05 22:31N 22°34' E 114°15'0 0.0
2017-Nov-05 21:54N 22°34' E 114°15'0 0.0
2017-Nov-05 21:30N 22°34' E 114°15'0 0.0
2017-Nov-05 21:00N 22°34' E 114°15'0 0.0
2017-Nov-05 20:30N 22°34' E 114°15'0 0.0
2017-Nov-05 19:41N 22°34' E 114°15'0 0.0
2017-Nov-05 19:29N 22°34' E 114°15'0 0.0
2017-Nov-05 18:47N 22°34' E 114°15'0 0.0
2017-Nov-05 18:23N 22°34' E 114°15'0 0.0
2017-Nov-05 17:59N 22°34' E 114°15'0 0.0
2017-Nov-05 16:22N 22°34' E 114°15'0 0.0
2017-Nov-05 15:58N 22°34' E 114°15'0 0.0
2017-Nov-05 15:28N 22°34' E 114°15'0 0.0
2017-Nov-05 14:57N 22°34' E 114°15'0 0.0
2017-Nov-05 13:39N 22°34' E 114°15'0 0.0
2017-Nov-05 13:15N 22°34' E 114°15'0 0.0
2017-Nov-05 12:50N 22°34' E 114°15'0 0.0
2017-Nov-05 12:26N 22°34' E 114°15'0 0.0
2017-Nov-05 11:56N 22°34' E 114°15'0 0.0
2017-Nov-05 11:26N 22°34' E 114°15'0 0.0
2017-Nov-05 10:43N 22°34' E 114°15'0 0.0
2017-Nov-05 10:25N 22°34' E 114°15'0 0.1
2017-Nov-05 09:58N 22°34' E 114°15'2 3.3
2017-Nov-05 09:31N 22°34' E 114°17'510.0
2017-Nov-05 09:00N 22°33' E 114°22'612.3
2017-Nov-05 08:30N 22°29' E 114°27'3 6.3
2017-Nov-05 08:00N 22°26' E 114°28'3 5.9
2017-Nov-05 07:30N 22°23' E 114°28'917.4
2017-Nov-05 07:00N 22°14' E 114°26'817.0
2017-Nov-05 06:30N 22°08' E 114°20'911.2
2017-Nov-05 05:43N 22°11' E 114°11'411.9
2017-Nov-05 05:24N 22°14' E 114°09'1010.0
2017-Nov-05 04:25N 22°21' E 114°01'513.0
2017-Nov-05 04:01N 22°21' E 113°55'4 7.9
2017-Nov-05 03:30N 22°25' E 113°53'4 7.4
2017-Nov-05 03:00N 22°28' E 113°52'4 7.4
2017-Nov-05 02:28N 22°32' E 113°51'0 0.4
2017-Nov-05 01:58N 22°32' E 113°51'0 0.0
2017-Nov-05 01:28N 22°32' E 113°51'0 0.0
2017-Nov-05 01:00N 22°32' E 113°51'0 0.1
2017-Nov-05 00:30N 22°32' E 113°51'0 0.1
2017-Nov-05 00:00N 22°32' E 113°51'0 0.0
2017-Nov-04 23:30N 22°32' E 113°51'0 0.0
2017-Nov-04 23:00N 22°32' E 113°51'0 0.0
2017-Nov-04 22:26N 22°32' E 113°51'0 0.0
2017-Nov-04 21:56N 22°32' E 113°51'0 0.0
2017-Nov-04 21:29N 22°32' E 113°51'0 0.0
2017-Nov-04 20:59N 22°32' E 113°51'0 0.0
2017-Nov-04 20:28N 22°32' E 113°51'0 0.0
2017-Nov-04 19:58N 22°32' E 113°51'0 0.0
2017-Nov-04 19:28N 22°32' E 113°51'0 0.0
2017-Nov-04 18:58N 22°32' E 113°51'0 0.0
2017-Nov-04 18:28N 22°32' E 113°51'0 0.0
2017-Nov-04 18:00N 22°32' E 113°51'0 0.0
2017-Nov-04 17:30N 22°32' E 113°51'0 0.0
2017-Nov-04 17:00N 22°32' E 113°51'0 0.0
2017-Nov-04 16:30N 22°32' E 113°51'0 0.0
2017-Nov-04 16:00N 22°32' E 113°51'0 0.0
2017-Nov-04 15:29N 22°32' E 113°51'0 0.0
2017-Nov-04 14:59N 22°32' E 113°51'0 0.0
2017-Nov-04 14:29N 22°32' E 113°51'0 0.0
2017-Nov-04 13:59N 22°32' E 113°51'0 0.0
2017-Nov-04 13:28N 22°32' E 113°51'0 0.0
2017-Nov-04 12:58N 22°32' E 113°51'0 0.1
2017-Nov-04 12:22N 22°32' E 113°51'0 0.1
2017-Nov-04 11:58N 22°32' E 113°51'0 0.0
2017-Nov-04 11:28N 22°32' E 113°51'0 0.0
2017-Nov-04 11:00N 22°32' E 113°51'0 0.0
2017-Nov-04 10:27N 22°32' E 113°51'0 0.0
2017-Nov-04 10:00N 22°32' E 113°51'0 0.0
2017-Nov-04 09:30N 22°32' E 113°51'0 0.1
2017-Nov-04 08:59N 22°32' E 113°51'0 0.1
2017-Nov-04 08:26N 22°32' E 113°51'0 0.1
2017-Nov-04 07:59N 22°32' E 113°51'0 0.1
2017-Nov-04 07:30N 22°32' E 113°51'0 0.1
2017-Nov-04 06:58N 22°32' E 113°51'0 0.0
2017-Nov-04 06:28N 22°32' E 113°51'0 0.1
2017-Nov-04 05:58N 22°32' E 113°51'0 0.0
2017-Nov-04 05:30N 22°32' E 113°51'0 0.0
2017-Nov-04 05:00N 22°32' E 113°51'0 0.0
2017-Nov-04 04:30N 22°32' E 113°51'2 4.3
2017-Nov-04 04:00N 22°30' E 113°51'611.6
2017-Nov-04 03:30N 22°24' E 113°53'4 7.9
2017-Nov-04 03:00N 22°21' E 113°56'12 9.7
2017-Nov-04 01:45N 22°15' E 114°07'5 8.4
2017-Nov-04 01:10N 22°12' E 114°11'1 7.9
2017-Nov-04 01:00N 22°11' E 114°12'6 8.8
2017-Nov-04 00:21N 22°08' E 114°17'310.0
2017-Nov-04 00:00N 22°08' E 114°21'3 5.8
2017-Nov-03 23:30N 22°08' E 114°24'3 6.9
2017-Nov-03 23:00N 22°05' E 114°25'4 8.1
2017-Nov-03 22:30N 22°01' E 114°24'713.0
2017-Nov-03 21:59N 21°54' E 114°22'  

Dump ship's entire track history